createdAt,value
2024-01-09T00:00:11.124Z,0.00
2024-01-09T00:01:11.141Z,0.00
2024-01-09T00:02:11.225Z,0.00
2024-01-09T00:03:11.221Z,0.00
2024-01-09T00:04:11.085Z,0.00
2024-01-09T00:05:11.112Z,0.00
2024-01-09T00:06:11.151Z,0.00
2024-01-09T00:07:11.117Z,0.00
2024-01-09T00:08:11.121Z,0.00
2024-01-09T00:09:11.153Z,0.00
2024-01-09T00:10:11.067Z,0.00
2024-01-09T00:11:11.106Z,0.00
2024-01-09T00:13:29.328Z,0.00
2024-01-09T00:14:30.381Z,0.00
2024-01-09T00:15:30.387Z,0.00
2024-01-09T00:16:30.861Z,0.00
2024-01-09T00:17:30.351Z,0.00
2024-01-09T00:18:30.326Z,0.00
2024-01-09T00:19:32.795Z,0.00
2024-01-09T00:20:30.289Z,0.00
2024-01-09T00:21:30.230Z,0.00
2024-01-09T00:22:30.229Z,0.00
2024-01-09T00:23:30.492Z,0.00
2024-01-09T00:24:30.290Z,0.00
2024-01-09T00:25:30.474Z,0.00
2024-01-09T00:26:31.010Z,0.00
2024-01-09T00:27:30.217Z,0.00
2024-01-09T00:28:30.171Z,0.00
2024-01-09T00:29:30.307Z,0.00
2024-01-09T00:30:30.172Z,0.00
2024-01-09T00:31:30.372Z,0.00
2024-01-09T00:32:30.325Z,0.00
2024-01-09T00:33:30.212Z,0.00
2024-01-09T00:34:30.159Z,0.00
2024-01-09T00:35:30.159Z,0.00
2024-01-09T00:36:30.107Z,0.00
2024-01-09T00:37:30.213Z,0.00
2024-01-09T00:38:30.237Z,0.00
2024-01-09T00:39:30.108Z,0.00
2024-01-09T00:40:30.148Z,0.00
2024-01-09T00:41:30.081Z,0.00
2024-01-09T00:42:30.025Z,0.00
2024-01-09T00:43:30.108Z,0.00
2024-01-09T00:44:30.069Z,0.00
2024-01-09T00:45:30.076Z,0.00
2024-01-09T00:46:30.200Z,0.00
2024-01-09T00:47:30.163Z,0.00
2024-01-09T00:48:30.184Z,0.00
2024-01-09T00:49:30.052Z,0.00
2024-01-09T00:50:30.723Z,0.00
2024-01-09T00:51:30.039Z,0.00
2024-01-09T00:52:29.946Z,0.00
2024-01-09T00:53:30.000Z,0.00
2024-01-09T00:54:29.917Z,0.00
2024-01-09T00:55:29.941Z,0.00
2024-01-09T00:56:29.937Z,0.00
2024-01-09T00:57:29.940Z,0.00
2024-01-09T00:58:29.926Z,0.00
2024-01-09T00:59:29.935Z,0.00
2024-01-09T01:00:29.917Z,0.00
2024-01-09T01:01:29.833Z,0.00
2024-01-09T01:02:29.889Z,0.00
2024-01-09T01:03:30.015Z,0.00
2024-01-09T01:04:30.029Z,0.00
2024-01-09T01:05:29.991Z,0.00
2024-01-09T01:06:29.788Z,0.00
2024-01-09T01:07:29.807Z,0.00
2024-01-09T01:08:29.906Z,0.00
2024-01-09T01:09:29.913Z,0.00
2024-01-09T01:10:29.846Z,0.00
2024-01-09T01:11:29.889Z,0.00
2024-01-09T01:12:29.749Z,0.00
2024-01-09T01:13:29.713Z,0.00
2024-01-09T01:14:29.767Z,0.00
2024-01-09T01:15:29.729Z,0.00
2024-01-09T01:16:29.829Z,0.00
2024-01-09T01:17:29.829Z,0.00
2024-01-09T01:18:29.789Z,0.00
2024-01-09T01:19:29.700Z,0.00
2024-01-09T01:20:29.666Z,0.00
2024-01-09T01:21:29.638Z,0.00
2024-01-09T01:22:29.709Z,0.00
2024-01-09T01:23:29.740Z,0.00
2024-01-09T01:24:29.609Z,0.00
2024-01-09T01:25:29.621Z,0.00
2024-01-09T01:26:29.651Z,0.00
2024-01-09T01:27:29.649Z,0.00
2024-01-09T01:28:29.630Z,0.00
2024-01-09T01:29:30.248Z,0.00
2024-01-09T01:30:29.710Z,0.00
2024-01-09T01:31:29.564Z,0.00
2024-01-09T01:32:30.549Z,0.00
2024-01-09T01:33:29.735Z,0.00
2024-01-09T01:34:29.625Z,0.00
2024-01-09T01:35:29.618Z,0.00
2024-01-09T01:36:29.461Z,0.00
2024-01-09T01:37:29.463Z,0.00
2024-01-09T01:38:29.495Z,0.00
2024-01-09T01:39:29.508Z,0.00
2024-01-09T01:40:29.481Z,0.00
2024-01-09T01:41:29.459Z,0.00
2024-01-09T01:42:29.436Z,0.00
2024-01-09T01:43:29.425Z,0.00
2024-01-09T01:44:29.477Z,0.00
2024-01-09T01:45:29.435Z,0.00
2024-01-09T01:46:29.424Z,0.00
2024-01-09T01:47:29.539Z,0.00
2024-01-09T01:48:29.562Z,0.00
2024-01-09T01:49:29.393Z,0.00
2024-01-09T01:50:29.353Z,0.00
2024-01-09T01:51:29.538Z,0.00
2024-01-09T01:52:29.472Z,0.00
2024-01-09T01:53:29.503Z,0.00
2024-01-09T01:54:29.360Z,0.00
2024-01-09T01:55:29.418Z,0.00
2024-01-09T01:56:29.373Z,0.00
2024-01-09T01:57:29.320Z,0.00
2024-01-09T01:58:29.669Z,0.00
2024-01-09T01:59:29.334Z,0.00
2024-01-09T02:00:29.310Z,0.00
2024-01-09T02:01:29.275Z,0.00
2024-01-09T02:02:29.266Z,0.00
2024-01-09T02:03:29.303Z,0.00
2024-01-09T02:04:29.202Z,0.00
2024-01-09T02:05:29.281Z,0.00
2024-01-09T02:06:29.290Z,0.00
2024-01-09T02:07:29.247Z,0.00
2024-01-09T02:08:29.272Z,0.00
2024-01-09T02:09:29.171Z,0.00
2024-01-09T02:10:29.143Z,0.00
2024-01-09T02:11:29.244Z,0.00
2024-01-09T02:12:29.196Z,0.00
2024-01-09T02:13:29.144Z,0.00
2024-01-09T02:14:29.167Z,0.00
2024-01-09T02:15:29.108Z,0.00
2024-01-09T02:16:29.107Z,0.00
2024-01-09T02:17:32.166Z,0.00
2024-01-09T02:18:35.735Z,0.00
2024-01-09T02:19:32.236Z,0.00
2024-01-09T02:20:36.796Z,0.00
2024-01-09T02:21:29.074Z,0.00
2024-01-09T02:22:29.060Z,0.00
2024-01-09T02:23:29.089Z,0.00
2024-01-09T02:24:30.022Z,0.00
2024-01-09T02:25:29.059Z,0.00
2024-01-09T02:26:40.717Z,0.00
2024-01-09T02:27:29.159Z,0.00
2024-01-09T02:28:29.037Z,0.00
2024-01-09T02:29:29.056Z,0.00
2024-01-09T02:30:29.032Z,0.00
2024-01-09T02:31:29.033Z,0.00
2024-01-09T02:32:29.149Z,0.00
2024-01-09T02:33:29.091Z,0.00
2024-01-09T02:34:29.068Z,0.00
2024-01-09T02:35:28.935Z,0.00
2024-01-09T02:36:28.921Z,0.00
2024-01-09T02:37:28.958Z,0.00
2024-01-09T02:38:28.944Z,0.00
2024-01-09T02:39:28.957Z,0.00
2024-01-09T02:40:28.877Z,0.00
2024-01-09T02:41:28.915Z,0.00
2024-01-09T02:42:28.897Z,0.00
2024-01-09T02:43:28.934Z,0.00
2024-01-09T02:44:28.963Z,0.00
2024-01-09T02:45:28.871Z,0.00
2024-01-09T02:46:28.813Z,0.00
2024-01-09T02:47:28.921Z,0.00
2024-01-09T02:48:28.875Z,0.00
2024-01-09T02:49:28.892Z,0.00
2024-01-09T02:50:28.852Z,0.00
2024-01-09T02:51:28.791Z,0.00
2024-01-09T02:52:28.815Z,0.00
2024-01-09T02:53:28.793Z,0.00
2024-01-09T02:54:28.801Z,0.00
2024-01-09T02:55:28.825Z,0.00
2024-01-09T02:56:28.869Z,0.00
2024-01-09T02:57:28.762Z,0.00
2024-01-09T02:58:28.724Z,0.00
2024-01-09T02:59:28.994Z,0.00
2024-01-09T03:00:28.660Z,0.00
2024-01-09T03:01:28.709Z,0.00
2024-01-09T03:02:28.810Z,0.00
2024-01-09T03:03:28.826Z,0.00
2024-01-09T03:04:28.730Z,0.00
2024-01-09T03:05:30.554Z,0.00
2024-01-09T03:06:28.924Z,0.00
2024-01-09T03:07:28.811Z,0.00
2024-01-09T03:08:28.649Z,0.00
2024-01-09T03:09:28.622Z,0.00
2024-01-09T03:10:28.627Z,0.00
2024-01-09T03:11:28.604Z,0.00
2024-01-09T03:12:28.538Z,0.00
2024-01-09T03:13:35.659Z,0.00
2024-01-09T03:14:28.553Z,0.00
2024-01-09T03:15:28.603Z,0.00
2024-01-09T03:16:28.529Z,0.00
2024-01-09T03:17:28.555Z,0.00
2024-01-09T03:18:29.202Z,0.00
2024-01-09T03:19:28.505Z,0.00
2024-01-09T03:20:28.511Z,0.00
2024-01-09T03:21:28.494Z,0.00
2024-01-09T03:22:28.515Z,0.00
2024-01-09T03:23:28.544Z,0.00
2024-01-09T03:24:28.520Z,0.00
2024-01-09T03:25:28.445Z,0.00
2024-01-09T03:26:29.057Z,0.00
2024-01-09T03:27:28.460Z,0.00
2024-01-09T03:28:28.419Z,0.00
2024-01-09T03:29:28.424Z,0.00
2024-01-09T03:30:28.664Z,0.00
2024-01-09T03:31:28.639Z,0.00
2024-01-09T03:32:28.480Z,0.00
2024-01-09T03:33:28.471Z,0.00
2024-01-09T03:34:28.393Z,0.00
2024-01-09T03:35:28.325Z,0.00
2024-01-09T03:36:28.325Z,0.00
2024-01-09T03:37:28.315Z,0.00
2024-01-09T03:38:28.346Z,0.00
2024-01-09T03:39:28.322Z,0.00
2024-01-09T03:40:28.376Z,0.00
2024-01-09T03:41:28.258Z,0.00
2024-01-09T03:42:28.361Z,0.00
2024-01-09T03:43:28.242Z,0.00
2024-01-09T03:44:28.254Z,0.00
2024-01-09T03:45:28.270Z,0.00
2024-01-09T03:46:28.259Z,0.00
2024-01-09T03:47:28.334Z,0.00
2024-01-09T03:48:28.208Z,0.00
2024-01-09T03:49:28.213Z,0.00
2024-01-09T03:50:28.188Z,0.00
2024-01-09T03:51:28.186Z,0.00
2024-01-09T03:52:28.229Z,0.00
2024-01-09T03:53:28.259Z,0.00
2024-01-09T03:54:28.191Z,0.00
2024-01-09T03:55:28.122Z,0.00
2024-01-09T03:56:28.172Z,0.00
2024-01-09T03:57:28.197Z,0.00
2024-01-09T03:58:28.148Z,0.00
2024-01-09T03:59:28.128Z,0.00
2024-01-09T04:00:28.088Z,0.00
2024-01-09T04:01:28.189Z,0.00
2024-01-09T04:02:28.140Z,0.00
2024-01-09T04:03:28.107Z,0.00
2024-01-09T04:04:29.288Z,0.00
2024-01-09T04:05:28.239Z,0.00
2024-01-09T04:06:28.247Z,0.00
2024-01-09T04:07:28.046Z,0.00
2024-01-09T04:08:28.030Z,0.00
2024-01-09T04:09:27.997Z,0.00
2024-01-09T04:10:27.992Z,0.00
2024-01-09T04:11:28.162Z,0.00
2024-01-09T04:12:28.011Z,0.00
2024-01-09T04:13:27.964Z,0.00
2024-01-09T04:14:28.066Z,0.00
2024-01-09T04:15:27.927Z,0.00
2024-01-09T04:16:27.923Z,0.00
2024-01-09T04:17:27.907Z,0.00
2024-01-09T04:18:28.064Z,0.00
2024-01-09T04:19:28.130Z,0.00
2024-01-09T04:20:27.990Z,0.00
2024-01-09T04:21:27.858Z,0.00
2024-01-09T04:22:27.893Z,0.00
2024-01-09T04:23:27.851Z,0.00
2024-01-09T04:24:27.841Z,0.00
2024-01-09T04:25:27.891Z,0.00
2024-01-09T04:26:27.942Z,0.00
2024-01-09T04:27:28.190Z,0.00
2024-01-09T04:28:27.933Z,0.00
2024-01-09T04:29:27.832Z,0.00
2024-01-09T04:30:27.867Z,0.00
2024-01-09T04:31:27.773Z,0.00
2024-01-09T04:32:27.944Z,0.00
2024-01-09T04:33:27.870Z,0.00
2024-01-09T04:34:27.777Z,0.00
2024-01-09T04:35:27.769Z,0.00
2024-01-09T04:36:27.754Z,0.00
2024-01-09T04:37:27.725Z,0.00
2024-01-09T04:38:27.749Z,0.00
2024-01-09T04:39:27.714Z,0.00
2024-01-09T04:40:27.701Z,0.00
2024-01-09T04:41:27.731Z,0.00
2024-01-09T04:42:27.678Z,0.00
2024-01-09T04:43:27.682Z,0.00
2024-01-09T04:44:27.723Z,0.00
2024-01-09T04:45:27.648Z,0.00
2024-01-09T04:46:27.638Z,0.00
2024-01-09T04:47:27.730Z,0.00
2024-01-09T04:48:27.758Z,0.00
2024-01-09T04:49:27.661Z,0.00
2024-01-09T04:50:27.673Z,0.00
2024-01-09T04:51:27.703Z,0.00
2024-01-09T04:52:27.660Z,0.00
2024-01-09T04:53:27.622Z,0.00
2024-01-09T04:54:27.552Z,0.00
2024-01-09T04:55:27.587Z,0.00
2024-01-09T04:56:27.661Z,0.00
2024-01-09T04:57:27.522Z,0.00
2024-01-09T04:58:27.519Z,0.00
2024-01-09T04:59:27.516Z,0.00
2024-01-09T05:00:27.533Z,0.00
2024-01-09T05:01:27.511Z,0.00
2024-01-09T05:02:27.557Z,0.00
2024-01-09T05:03:27.613Z,0.00
2024-01-09T05:04:27.531Z,0.00
2024-01-09T05:05:27.598Z,0.00
2024-01-09T05:06:27.610Z,0.00
2024-01-09T05:07:27.400Z,0.00
2024-01-09T05:08:27.428Z,0.00
2024-01-09T05:09:27.440Z,0.00
2024-01-09T05:10:27.443Z,0.00
2024-01-09T05:11:27.413Z,0.00
2024-01-09T05:12:27.411Z,0.00
2024-01-09T05:13:27.358Z,0.00
2024-01-09T05:14:27.416Z,0.00
2024-01-09T05:15:27.351Z,0.00
2024-01-09T05:16:27.445Z,0.00
2024-01-09T05:17:27.639Z,0.00
2024-01-09T05:18:27.529Z,0.00
2024-01-09T05:19:27.385Z,0.00
2024-01-09T05:20:27.321Z,0.00
2024-01-09T05:21:27.304Z,0.00
2024-01-09T05:22:27.298Z,0.00
2024-01-09T05:23:27.288Z,0.00
2024-01-09T05:24:27.286Z,0.00
2024-01-09T05:25:27.232Z,0.00
2024-01-09T05:26:27.245Z,0.00
2024-01-09T05:27:27.228Z,0.00
2024-01-09T05:28:27.241Z,0.00
2024-01-09T05:29:27.287Z,0.00
2024-01-09T05:30:27.360Z,0.00
2024-01-09T05:31:29.098Z,0.00
2024-01-09T05:32:27.553Z,0.00
2024-01-09T05:33:27.331Z,0.00
2024-01-09T05:34:27.156Z,0.00
2024-01-09T05:35:27.267Z,0.00
2024-01-09T05:36:27.186Z,0.00
2024-01-09T05:37:27.724Z,0.00
2024-01-09T05:38:27.148Z,0.00
2024-01-09T05:39:27.084Z,0.00
2024-01-09T05:40:27.116Z,0.00
2024-01-09T05:41:27.141Z,0.00
2024-01-09T05:42:27.131Z,0.00
2024-01-09T05:43:27.095Z,0.00
2024-01-09T05:44:27.081Z,0.00
2024-01-09T05:45:27.134Z,0.00
2024-01-09T05:46:27.025Z,0.00
2024-01-09T05:47:27.151Z,0.00
2024-01-09T05:48:27.337Z,0.00
2024-01-09T05:49:27.178Z,0.00
2024-01-09T05:50:27.014Z,0.00
2024-01-09T05:51:26.990Z,0.00
2024-01-09T05:52:27.607Z,0.00
2024-01-09T05:53:27.169Z,0.00
2024-01-09T05:54:27.032Z,0.00
2024-01-09T05:55:26.982Z,0.00
2024-01-09T05:56:27.128Z,0.00
2024-01-09T05:57:27.027Z,0.00
2024-01-09T05:58:26.939Z,0.00
2024-01-09T05:59:27.003Z,0.00
2024-01-09T06:00:26.899Z,0.00
2024-01-09T06:01:26.908Z,0.00
2024-01-09T06:02:27.217Z,0.00
2024-01-09T06:03:26.922Z,0.00
2024-01-09T06:04:26.855Z,0.00
2024-01-09T06:05:27.889Z,0.00
2024-01-09T06:06:26.965Z,0.00
2024-01-09T06:07:26.852Z,0.00
2024-01-09T06:08:26.916Z,0.00
2024-01-09T06:09:27.197Z,0.00
2024-01-09T06:10:26.884Z,0.00
2024-01-09T06:11:26.841Z,0.00
2024-01-09T06:12:26.814Z,0.00
2024-01-09T06:13:26.766Z,0.00
2024-01-09T06:14:26.765Z,0.00
2024-01-09T06:15:26.776Z,0.00
2024-01-09T06:16:26.833Z,0.00
2024-01-09T06:17:26.838Z,0.00
2024-01-09T06:18:26.874Z,0.00
2024-01-09T06:19:26.817Z,0.00
2024-01-09T06:20:26.727Z,0.00
2024-01-09T06:21:26.767Z,0.00
2024-01-09T06:22:26.761Z,0.00
2024-01-09T06:23:26.744Z,0.00
2024-01-09T06:24:26.672Z,0.00
2024-01-09T06:25:26.633Z,0.00
2024-01-09T06:26:26.710Z,0.00
2024-01-09T06:27:27.215Z,0.00
2024-01-09T06:28:26.688Z,0.00
2024-01-09T06:29:26.622Z,0.00
2024-01-09T06:30:26.709Z,0.00
2024-01-09T06:31:26.625Z,0.00
2024-01-09T06:32:26.833Z,0.00
2024-01-09T06:33:26.846Z,0.00
2024-01-09T06:34:26.745Z,0.00
2024-01-09T06:35:26.520Z,0.00
2024-01-09T06:36:27.864Z,0.00
2024-01-09T06:37:26.490Z,0.00
2024-01-09T06:38:26.509Z,0.00
2024-01-09T06:39:26.485Z,0.00
2024-01-09T06:40:26.501Z,0.00
2024-01-09T06:41:26.457Z,0.00
2024-01-09T06:42:26.473Z,0.00
2024-01-09T06:43:26.409Z,0.00
2024-01-09T06:44:26.443Z,0.00
2024-01-09T06:45:26.495Z,0.00
2024-01-09T06:46:26.472Z,0.00
2024-01-09T06:47:26.451Z,0.00
2024-01-09T06:48:26.669Z,0.00
2024-01-09T06:49:26.416Z,0.00
2024-01-09T06:50:33.587Z,0.00
2024-01-09T06:51:26.490Z,0.00
2024-01-09T06:52:26.406Z,0.00
2024-01-09T06:53:26.523Z,0.00
2024-01-09T06:54:26.322Z,0.00
2024-01-09T06:55:26.298Z,0.00
2024-01-09T06:56:26.402Z,0.00
2024-01-09T06:57:26.326Z,0.00
2024-01-09T06:58:26.850Z,0.00
2024-01-09T06:59:26.363Z,0.00
2024-01-09T07:00:26.518Z,0.00
2024-01-09T07:01:26.255Z,0.00
2024-01-09T07:02:26.401Z,0.00
2024-01-09T07:03:26.288Z,0.00
2024-01-09T07:04:26.435Z,0.00
2024-01-09T07:05:26.430Z,0.00
2024-01-09T07:06:26.693Z,0.00
2024-01-09T07:07:34.580Z,0.00
2024-01-09T07:08:26.341Z,0.00
2024-01-09T07:09:26.221Z,0.00
2024-01-09T07:10:27.118Z,0.00
2024-01-09T07:11:26.168Z,0.00
2024-01-09T07:12:26.121Z,0.00
2024-01-09T07:13:26.141Z,0.00
2024-01-09T07:14:26.167Z,0.00
2024-01-09T07:15:26.283Z,0.00
2024-01-09T07:16:26.126Z,0.00
2024-01-09T07:17:26.313Z,0.00
2024-01-09T07:18:26.274Z,0.00
2024-01-09T07:19:26.113Z,0.00
2024-01-09T07:20:26.097Z,0.00
2024-01-09T07:21:37.246Z,5.62
2024-01-09T07:22:26.099Z,5.62
2024-01-09T07:23:32.660Z,5.62
2024-01-09T07:24:33.552Z,5.62
2024-01-09T07:25:32.862Z,5.62
2024-01-09T07:26:26.062Z,5.62
2024-01-09T07:27:26.019Z,5.62
2024-01-09T07:28:28.030Z,5.62
2024-01-09T07:29:26.047Z,5.62
2024-01-09T07:30:26.076Z,5.62
2024-01-09T07:31:25.977Z,5.62
2024-01-09T07:32:32.583Z,5.62
2024-01-09T07:33:26.247Z,5.62
2024-01-09T07:34:25.977Z,5.62
2024-01-09T07:35:26.026Z,5.62
2024-01-09T07:36:25.939Z,11.25
2024-01-09T07:37:26.042Z,11.25
2024-01-09T07:38:26.373Z,11.25
2024-01-09T07:39:25.992Z,11.25
2024-01-09T07:40:25.956Z,11.25
2024-01-09T07:41:26.752Z,11.25
2024-01-09T07:42:25.897Z,11.25
2024-01-09T07:43:25.895Z,11.25
2024-01-09T07:44:25.939Z,11.25
2024-01-09T07:45:25.824Z,11.25
2024-01-09T07:46:25.871Z,11.25
2024-01-09T07:47:25.863Z,11.25
2024-01-09T07:48:26.046Z,11.25
2024-01-09T07:49:25.871Z,11.25
2024-01-09T07:50:25.894Z,11.25
2024-01-09T07:51:25.969Z,11.25
2024-01-09T07:52:25.887Z,16.88
2024-01-09T07:53:27.122Z,16.88
2024-01-09T07:54:25.860Z,16.88
2024-01-09T07:55:25.784Z,16.88
2024-01-09T07:56:27.266Z,16.88
2024-01-09T07:57:32.582Z,16.88
2024-01-09T07:58:25.991Z,16.88
2024-01-09T07:59:26.714Z,16.88
2024-01-09T08:00:25.813Z,16.88
2024-01-09T08:01:25.818Z,16.88
2024-01-09T08:02:25.818Z,16.88
2024-01-09T08:03:25.745Z,16.88
2024-01-09T08:04:25.624Z,16.88
2024-01-09T08:05:25.681Z,16.88
2024-01-09T08:06:25.908Z,16.88
2024-01-09T08:07:25.684Z,16.88
2024-01-09T08:08:25.738Z,22.50
2024-01-09T08:09:25.603Z,22.50
2024-01-09T08:10:25.602Z,22.50
2024-01-09T08:11:25.646Z,22.50
2024-01-09T08:12:25.696Z,22.50
2024-01-09T08:13:25.618Z,22.50
2024-01-09T08:14:25.561Z,22.50
2024-01-09T08:15:25.642Z,22.50
2024-01-09T08:16:25.578Z,22.50
2024-01-09T08:17:25.584Z,22.50
2024-01-09T08:18:25.759Z,22.50
2024-01-09T08:19:25.620Z,22.50
2024-01-09T08:20:25.591Z,22.50
2024-01-09T08:21:25.498Z,22.50
2024-01-09T08:22:25.532Z,22.50
2024-01-09T08:23:25.704Z,22.50
2024-01-09T08:24:25.506Z,22.50
2024-01-09T08:25:25.682Z,22.50
2024-01-09T08:26:25.450Z,22.50
2024-01-09T08:27:25.429Z,28.12
2024-01-09T08:28:25.420Z,28.12
2024-01-09T08:29:25.523Z,28.12
2024-01-09T08:30:25.755Z,28.12
2024-01-09T08:31:25.492Z,28.12
2024-01-09T08:32:25.482Z,28.12
2024-01-09T08:33:27.270Z,28.12
2024-01-09T08:34:25.488Z,28.12
2024-01-09T08:35:25.373Z,28.12
2024-01-09T08:36:25.445Z,28.12
2024-01-09T08:37:25.428Z,28.12
2024-01-09T08:38:25.379Z,28.12
2024-01-09T08:39:25.301Z,28.12
2024-01-09T08:40:25.321Z,28.12
2024-01-09T08:41:25.354Z,28.12
2024-01-09T08:42:25.404Z,28.12
2024-01-09T08:43:25.467Z,28.12
2024-01-09T08:44:25.508Z,28.12
2024-01-09T08:45:25.762Z,28.12
2024-01-09T08:46:25.342Z,33.75
2024-01-09T08:47:25.314Z,33.75
2024-01-09T08:48:25.477Z,33.75
2024-01-09T08:49:25.367Z,33.75
2024-01-09T08:50:25.372Z,33.75
2024-01-09T08:51:28.539Z,33.75
2024-01-09T08:52:25.159Z,33.75
2024-01-09T08:53:25.213Z,33.75
2024-01-09T08:54:25.195Z,33.75
2024-01-09T08:55:33.840Z,33.75
2024-01-09T08:56:25.200Z,33.75
2024-01-09T08:57:25.110Z,33.75
2024-01-09T08:58:25.117Z,33.75
2024-01-09T08:59:25.288Z,33.75
2024-01-09T09:00:25.089Z,33.75
2024-01-09T09:01:25.287Z,33.75
2024-01-09T09:02:25.128Z,33.75
2024-01-09T09:03:25.163Z,33.75
2024-01-09T09:04:25.113Z,33.75
2024-01-09T09:05:25.283Z,33.75
2024-01-09T09:06:25.148Z,33.75
2024-01-09T09:07:25.027Z,33.75
2024-01-09T09:08:25.205Z,33.75
2024-01-09T09:09:25.029Z,39.38
2024-01-09T09:10:24.989Z,39.38
2024-01-09T09:11:25.173Z,39.38
2024-01-09T09:12:25.052Z,39.38
2024-01-09T09:13:25.002Z,39.38
2024-01-09T09:14:24.986Z,39.38
2024-01-09T09:15:25.041Z,39.38
2024-01-09T09:16:24.913Z,39.38
2024-01-09T09:17:24.937Z,39.38
2024-01-09T09:18:25.023Z,39.38
2024-01-09T09:19:25.017Z,39.38
2024-01-09T09:20:24.977Z,39.38
2024-01-09T09:21:25.026Z,39.38
2024-01-09T09:22:25.084Z,39.38
2024-01-09T09:23:24.933Z,39.38
2024-01-09T09:24:25.075Z,39.38
2024-01-09T09:25:24.869Z,39.38
2024-01-09T09:26:24.925Z,39.38
2024-01-09T09:27:24.888Z,39.38
2024-01-09T09:28:27.274Z,39.38
2024-01-09T09:29:32.512Z,39.38
2024-01-09T09:30:25.118Z,39.38
2024-01-09T09:31:25.108Z,39.38
2024-01-09T09:32:24.847Z,45.00
2024-01-09T09:33:25.061Z,45.00
2024-01-09T09:34:24.917Z,45.00
2024-01-09T09:35:24.765Z,45.00
2024-01-09T09:36:24.736Z,45.00
2024-01-09T09:37:24.746Z,45.00
2024-01-09T09:38:24.740Z,45.00
2024-01-09T09:39:24.746Z,45.00
2024-01-09T09:40:24.725Z,45.00
2024-01-09T09:41:24.771Z,45.00
2024-01-09T09:42:24.675Z,45.00
2024-01-09T09:43:24.691Z,45.00
2024-01-09T09:44:24.694Z,45.00
2024-01-09T09:45:24.716Z,45.00
2024-01-09T09:46:24.690Z,45.00
2024-01-09T09:47:24.737Z,45.00
2024-01-09T09:48:24.776Z,45.00
2024-01-09T09:49:24.739Z,45.00
2024-01-09T09:50:24.609Z,45.00
2024-01-09T09:51:26.838Z,50.62
2024-01-09T09:52:24.652Z,50.62
2024-01-09T09:53:24.644Z,50.62
2024-01-09T09:54:24.785Z,50.62
2024-01-09T09:55:24.562Z,50.62
2024-01-09T09:56:24.587Z,50.62
2024-01-09T09:57:24.561Z,50.62
2024-01-09T09:58:24.599Z,50.62
2024-01-09T09:59:24.567Z,50.62
2024-01-09T10:00:24.815Z,50.62
2024-01-09T10:01:24.663Z,50.62
2024-01-09T10:02:25.886Z,50.62
2024-01-09T10:03:24.656Z,50.62
2024-01-09T10:04:24.574Z,50.62
2024-01-09T10:05:24.548Z,50.62
2024-01-09T10:06:24.566Z,56.25
2024-01-09T10:07:24.433Z,56.25
2024-01-09T10:08:24.446Z,56.25
2024-01-09T10:09:24.472Z,56.25
2024-01-09T10:10:24.454Z,56.25
2024-01-09T10:11:24.561Z,56.25
2024-01-09T10:12:24.452Z,56.25
2024-01-09T10:13:24.525Z,56.25
2024-01-09T10:14:24.372Z,56.25
2024-01-09T10:15:24.412Z,56.25
2024-01-09T10:16:24.395Z,56.25
2024-01-09T10:17:24.496Z,56.25
2024-01-09T10:18:24.485Z,56.25
2024-01-09T10:19:24.424Z,56.25
2024-01-09T10:20:26.415Z,61.88
2024-01-09T10:21:24.415Z,61.88
2024-01-09T10:22:24.406Z,61.88
2024-01-09T10:23:24.528Z,61.88
2024-01-09T10:24:24.277Z,61.88
2024-01-09T10:25:24.259Z,61.88
2024-01-09T10:26:24.365Z,61.88
2024-01-09T10:27:24.271Z,61.88
2024-01-09T10:28:24.280Z,61.88
2024-01-09T10:29:24.334Z,61.88
2024-01-09T10:30:24.334Z,61.88
2024-01-09T10:31:24.263Z,61.88
2024-01-09T10:32:24.386Z,61.88
2024-01-09T10:33:24.283Z,61.88
2024-01-09T10:34:24.522Z,61.88
2024-01-09T10:35:24.271Z,67.50
2024-01-09T10:36:24.188Z,67.50
2024-01-09T10:37:24.153Z,67.50
2024-01-09T10:38:24.133Z,67.50
2024-01-09T10:39:24.114Z,67.50
2024-01-09T10:40:24.849Z,67.50
2024-01-09T10:41:24.386Z,67.50
2024-01-09T10:42:24.455Z,67.50
2024-01-09T10:43:24.138Z,67.50
2024-01-09T10:44:24.052Z,73.12
2024-01-09T10:45:24.101Z,73.12
2024-01-09T10:46:24.068Z,73.12
2024-01-09T10:47:24.238Z,73.12
2024-01-09T10:48:24.138Z,73.12
2024-01-09T10:49:24.241Z,73.12
2024-01-09T10:50:24.203Z,73.12
2024-01-09T10:51:24.013Z,73.12
2024-01-09T10:52:23.987Z,73.12
2024-01-09T10:53:24.097Z,73.12
2024-01-09T10:54:24.143Z,73.12
2024-01-09T10:55:23.961Z,73.12
2024-01-09T10:56:23.985Z,73.12
2024-01-09T10:57:23.945Z,78.75
2024-01-09T10:58:23.927Z,78.75
2024-01-09T10:59:23.994Z,78.75
2024-01-09T11:00:23.913Z,78.75
2024-01-09T11:01:23.945Z,78.75
2024-01-09T11:02:23.985Z,78.75
2024-01-09T11:03:24.011Z,78.75
2024-01-09T11:04:23.903Z,78.75
2024-01-09T11:05:23.892Z,78.75
2024-01-09T11:06:23.873Z,78.75
2024-01-09T11:07:23.878Z,78.75
2024-01-09T11:08:23.879Z,84.38
2024-01-09T11:09:23.788Z,84.38
2024-01-09T11:10:23.816Z,84.38
2024-01-09T11:11:23.937Z,84.38
2024-01-09T11:12:23.826Z,84.38
2024-01-09T11:13:23.789Z,84.38
2024-01-09T11:14:23.791Z,84.38
2024-01-09T11:15:23.737Z,84.38
2024-01-09T11:16:23.804Z,84.38
2024-01-09T11:17:23.866Z,84.38
2024-01-09T11:18:23.887Z,84.38
2024-01-09T11:19:23.779Z,84.38
2024-01-09T11:20:23.730Z,84.38
2024-01-09T11:21:23.703Z,84.38
2024-01-09T11:22:23.722Z,90.00
2024-01-09T11:23:23.711Z,90.00
2024-01-09T11:24:23.697Z,90.00
2024-01-09T11:25:23.666Z,90.00
2024-01-09T11:26:23.738Z,90.00
2024-01-09T11:27:23.780Z,90.00
2024-01-09T11:28:23.700Z,90.00
2024-01-09T11:29:23.720Z,90.00
2024-01-09T11:30:23.840Z,90.00
2024-01-09T11:31:23.766Z,90.00
2024-01-09T11:32:23.642Z,90.00
2024-01-09T11:33:23.771Z,90.00
2024-01-09T11:34:23.704Z,90.00
2024-01-09T11:35:23.615Z,90.00
2024-01-09T11:36:23.668Z,95.62
2024-01-09T11:37:23.637Z,95.62
2024-01-09T11:38:23.515Z,95.62
2024-01-09T11:39:23.500Z,95.62
2024-01-09T11:40:23.674Z,95.62
2024-01-09T11:41:23.671Z,101.25
2024-01-09T11:42:23.868Z,101.25
2024-01-09T11:43:23.512Z,101.25
2024-01-09T11:44:23.460Z,101.25
2024-01-09T11:45:23.450Z,101.25
2024-01-09T11:46:23.804Z,106.88
2024-01-09T11:47:23.473Z,106.88
2024-01-09T11:48:23.887Z,106.88
2024-01-09T11:49:23.523Z,106.88
2024-01-09T11:50:23.503Z,106.88
2024-01-09T11:51:23.473Z,106.88
2024-01-09T11:52:23.438Z,112.50
2024-01-09T11:53:23.380Z,112.50
2024-01-09T11:54:23.425Z,112.50
2024-01-09T11:55:23.543Z,112.50
2024-01-09T11:56:23.438Z,118.12
2024-01-09T11:57:23.371Z,118.12
2024-01-09T11:58:23.346Z,118.12
2024-01-09T11:59:23.370Z,118.12
2024-01-09T12:00:23.274Z,123.75
2024-01-09T12:01:23.409Z,123.75
2024-01-09T12:02:23.352Z,123.75
2024-01-09T12:03:23.275Z,123.75
2024-01-09T12:04:23.756Z,123.75
2024-01-09T12:05:23.291Z,129.38
2024-01-09T12:06:23.298Z,129.38
2024-01-09T12:07:23.357Z,129.38
2024-01-09T12:08:23.289Z,129.38
2024-01-09T12:09:23.216Z,129.38
2024-01-09T12:10:30.673Z,129.38
2024-01-09T12:11:23.311Z,129.38
2024-01-09T12:12:23.183Z,129.38
2024-01-09T12:13:23.303Z,129.38
2024-01-09T12:14:23.258Z,129.38
2024-01-09T12:15:23.366Z,129.38
2024-01-09T12:16:23.380Z,123.75
2024-01-09T12:17:23.484Z,123.75
2024-01-09T12:18:23.230Z,123.75
2024-01-09T12:19:23.208Z,123.75
2024-01-09T12:20:23.146Z,123.75
2024-01-09T12:21:23.037Z,123.75
2024-01-09T12:22:23.048Z,123.75
2024-01-09T12:23:23.125Z,118.12
2024-01-09T12:24:24.922Z,118.12
2024-01-09T12:25:23.003Z,118.12
2024-01-09T12:26:23.271Z,118.12
2024-01-09T12:27:23.042Z,118.12
2024-01-09T12:28:22.994Z,112.50
2024-01-09T12:29:23.068Z,112.50
2024-01-09T12:30:23.120Z,112.50
2024-01-09T12:31:23.028Z,106.88
2024-01-09T12:32:22.964Z,106.88
2024-01-09T12:33:23.056Z,106.88
2024-01-09T12:34:23.111Z,106.88
2024-01-09T12:35:23.055Z,101.25
2024-01-09T12:36:23.097Z,101.25
2024-01-09T12:37:22.990Z,101.25
2024-01-09T12:38:22.939Z,101.25
2024-01-09T12:39:22.888Z,101.25
2024-01-09T12:40:22.878Z,95.62
2024-01-09T12:41:23.073Z,95.62
2024-01-09T12:42:23.024Z,95.62
2024-01-09T12:43:22.846Z,95.62
2024-01-09T12:44:22.865Z,90.00
2024-01-09T12:45:22.825Z,90.00
2024-01-09T12:46:22.989Z,90.00
2024-01-09T12:47:22.873Z,90.00
2024-01-09T12:48:22.975Z,90.00
2024-01-09T12:49:22.873Z,84.38
2024-01-09T12:50:22.775Z,84.38
2024-01-09T12:51:22.853Z,84.38
2024-01-09T12:52:22.776Z,84.38
2024-01-09T12:53:22.793Z,78.75
2024-01-09T12:54:22.833Z,78.75
2024-01-09T12:55:22.871Z,78.75
2024-01-09T12:56:22.756Z,78.75
2024-01-09T12:57:22.731Z,84.38
2024-01-09T12:58:22.720Z,78.75
2024-01-09T12:59:22.870Z,78.75
2024-01-09T13:00:22.730Z,78.75
2024-01-09T13:01:22.772Z,78.75
2024-01-09T13:02:22.753Z,78.75
2024-01-09T13:03:23.006Z,78.75
2024-01-09T13:04:22.868Z,78.75
2024-01-09T13:05:22.718Z,78.75
2024-01-09T13:06:22.654Z,73.12